Terminal Aerodrome Forecast
Issued by NWS

Home | Current Version | Previous Version | Text Only | Print | Product List | Glossary On
Versions: 1 2 3 4 5 6 7 8 9 10 11 12 13
344
FTUS46 KPDT 261135
TAFYKM
TAF
KYKM 261135Z 2612/2712 26006KT P6SM VCSH BKN060 OVC080
     FM261400 VRB04KT 3SM -SN BR BKN030 OVC040
     FM261600 VRB03KT 3SM -SN BR OVC025
     FM270200 VRB04KT P6SM VCSH OVC030=

USA.gov is the U.S. government's official web portal to all federal, state and local government web resources and services.